sensor_id;sensor_type;location;lat;lon;timestamp;P1;durP1;ratioP1;P2;durP2;ratioP2
215;SDS011;64590;48.81286795;9.14184224;2023-02-18T00:01:01;4.30;;;2.10;;
215;SDS011;64590;48.81286795;9.14184224;2023-02-18T00:03:29;4.00;;;2.07;;
215;SDS011;64590;48.81286795;9.14184224;2023-02-18T00:05:55;3.30;;;2.20;;
215;SDS011;64590;48.81286795;9.14184224;2023-02-18T00:08:23;3.47;;;2.10;;
215;SDS011;64590;48.81286795;9.14184224;2023-02-18T00:10:50;2.90;;;1.90;;
215;SDS011;64590;48.81286795;9.14184224;2023-02-18T00:13:17;4.27;;;2.23;;
215;SDS011;64590;48.81286795;9.14184224;2023-02-18T00:15:44;3.17;;;2.10;;
215;SDS011;64590;48.81286795;9.14184224;2023-02-18T00:18:10;3.80;;;2.20;;
215;SDS011;64590;48.81286795;9.14184224;2023-02-18T00:20:37;5.27;;;2.20;;
215;SDS011;64590;48.81286795;9.14184224;2023-02-18T00:23:04;4.33;;;2.27;;
215;SDS011;64590;48.81286795;9.14184224;2023-02-18T00:25:32;3.10;;;2.10;;
215;SDS011;64590;48.81286795;9.14184224;2023-02-18T00:27:58;4.00;;;2.20;;
215;SDS011;64590;48.81286795;9.14184224;2023-02-18T00:30:25;3.70;;;2.37;;
215;SDS011;64590;48.81286795;9.14184224;2023-02-18T00:32:54;5.40;;;2.37;;
215;SDS011;64590;48.81286795;9.14184224;2023-02-18T00:35:21;3.27;;;2.27;;
215;SDS011;64590;48.81286795;9.14184224;2023-02-18T00:37:49;4.37;;;2.50;;
215;SDS011;64590;48.81286795;9.14184224;2023-02-18T00:40:17;3.37;;;2.13;;
215;SDS011;64590;48.81286795;9.14184224;2023-02-18T00:45:40;3.60;;;2.23;;
215;SDS011;64590;48.81286795;9.14184224;2023-02-18T00:48:06;3.50;;;2.03;;
215;SDS011;64590;48.81286795;9.14184224;2023-02-18T00:50:33;4.37;;;2.33;;
215;SDS011;64590;48.81286795;9.14184224;2023-02-18T00:53:00;3.33;;;2.00;;
215;SDS011;64590;48.81286795;9.14184224;2023-02-18T00:55:26;3.60;;;2.30;;
215;SDS011;64590;48.81286795;9.14184224;2023-02-18T00:57:53;3.93;;;2.30;;
215;SDS011;64590;48.81286795;9.14184224;2023-02-18T01:00:20;4.80;;;2.40;;
215;SDS011;64590;48.81286795;9.14184224;2023-02-18T01:02:48;3.70;;;2.57;;
215;SDS011;64590;48.81286795;9.14184224;2023-02-18T01:05:20;5.17;;;2.60;;
215;SDS011;64590;48.81286795;9.14184224;2023-02-18T01:07:47;4.00;;;2.70;;
215;SDS011;64590;48.81286795;9.14184224;2023-02-18T01:10:14;4.83;;;2.43;;
215;SDS011;64590;48.81286795;9.14184224;2023-02-18T01:12:41;3.80;;;2.40;;
215;SDS011;64590;48.81286795;9.14184224;2023-02-18T01:15:10;4.70;;;2.57;;
215;SDS011;64590;48.81286795;9.14184224;2023-02-18T01:17:40;5.03;;;2.67;;
215;SDS011;64590;48.81286795;9.14184224;2023-02-18T01:20:08;4.73;;;2.60;;
215;SDS011;64590;48.81286795;9.14184224;2023-02-18T01:22:36;3.87;;;2.60;;
215;SDS011;64590;48.81286795;9.14184224;2023-02-18T01:25:06;3.87;;;2.60;;
215;SDS011;64590;48.81286795;9.14184224;2023-02-18T01:27:34;3.67;;;2.50;;
215;SDS011;64590;48.81286795;9.14184224;2023-02-18T01:30:01;4.33;;;2.63;;
215;SDS011;64590;48.81286795;9.14184224;2023-02-18T01:32:28;3.57;;;2.63;;
215;SDS011;64590;48.81286795;9.14184224;2023-02-18T01:34:55;4.33;;;2.40;;
215;SDS011;64590;48.81286795;9.14184224;2023-02-18T01:37:23;3.80;;;2.50;;
215;SDS011;64590;48.81286795;9.14184224;2023-02-18T01:39:49;4.60;;;2.70;;
215;SDS011;64590;48.81286795;9.14184224;2023-02-18T01:42:20;3.77;;;2.70;;
215;SDS011;64590;48.81286795;9.14184224;2023-02-18T01:44:49;3.60;;;2.60;;
215;SDS011;64590;48.81286795;9.14184224;2023-02-18T01:47:15;5.13;;;2.60;;
215;SDS011;64590;48.81286795;9.14184224;2023-02-18T01:49:43;3.97;;;2.60;;
215;SDS011;64590;48.81286795;9.14184224;2023-02-18T01:52:14;5.17;;;2.70;;
215;SDS011;64590;48.81286795;9.14184224;2023-02-18T01:54:44;4.30;;;2.77;;
215;SDS011;64590;48.81286795;9.14184224;2023-02-18T01:57:15;5.63;;;2.70;;
215;SDS011;64590;48.81286795;9.14184224;2023-02-18T01:59:47;3.93;;;2.50;;
215;SDS011;64590;48.81286795;9.14184224;2023-02-18T02:02:19;4.10;;;2.70;;
215;SDS011;64590;48.81286795;9.14184224;2023-02-18T02:04:47;4.50;;;2.63;;
215;SDS011;64590;48.81286795;9.14184224;2023-02-18T02:07:15;4.60;;;2.73;;
215;SDS011;64590;48.81286795;9.14184224;2023-02-18T02:09:46;4.20;;;2.80;;
215;SDS011;64590;48.81286795;9.14184224;2023-02-18T02:12:22;4.90;;;2.90;;
215;SDS011;64590;48.81286795;9.14184224;2023-02-18T02:15:05;5.27;;;3.10;;
215;SDS011;64590;48.81286795;9.14184224;2023-02-18T02:20:59;4.33;;;3.00;;
215;SDS011;64590;48.81286795;9.14184224;2023-02-18T02:23:55;4.60;;;2.90;;
215;SDS011;64590;48.81286795;9.14184224;2023-02-18T02:35:57;4.57;;;3.10;;
215;SDS011;64590;48.81286795;9.14184224;2023-02-18T02:38:30;4.20;;;3.07;;
215;SDS011;64590;48.81286795;9.14184224;2023-02-18T02:41:07;5.03;;;3.00;;
215;SDS011;64590;48.81286795;9.14184224;2023-02-18T02:43:43;5.23;;;3.27;;
215;SDS011;64590;48.81286795;9.14184224;2023-02-18T02:46:17;5.00;;;3.17;;
215;SDS011;64590;48.81286795;9.14184224;2023-02-18T02:48:50;4.63;;;3.20;;
215;SDS011;64590;48.81286795;9.14184224;2023-02-18T02:51:25;5.00;;;3.00;;
215;SDS011;64590;48.81286795;9.14184224;2023-02-18T02:54:04;5.10;;;3.17;;
215;SDS011;64590;48.81286795;9.14184224;2023-02-18T02:56:35;4.83;;;3.10;;
215;SDS011;64590;48.81286795;9.14184224;2023-02-18T02:59:03;4.30;;;2.90;;
215;SDS011;64590;48.81286795;9.14184224;2023-02-18T03:01:40;4.90;;;3.20;;
215;SDS011;64590;48.81286795;9.14184224;2023-02-18T03:10:35;5.70;;;3.17;;
215;SDS011;64590;48.81286795;9.14184224;2023-02-18T03:13:15;4.97;;;3.03;;
215;SDS011;64590;48.81286795;9.14184224;2023-02-18T03:15:54;4.00;;;2.70;;
215;SDS011;64590;48.81286795;9.14184224;2023-02-18T03:18:24;4.00;;;2.77;;
215;SDS011;64590;48.81286795;9.14184224;2023-02-18T03:20:59;4.63;;;2.90;;
215;SDS011;64590;48.81286795;9.14184224;2023-02-18T03:23:33;5.00;;;3.00;;
215;SDS011;64590;48.81286795;9.14184224;2023-02-18T03:26:04;4.03;;;2.80;;
215;SDS011;64590;48.81286795;9.14184224;2023-02-18T03:28:34;4.00;;;2.70;;
215;SDS011;64590;48.81286795;9.14184224;2023-02-18T03:31:03;5.20;;;2.70;;
215;SDS011;64590;48.81286795;9.14184224;2023-02-18T03:33:34;4.40;;;2.77;;
215;SDS011;64590;48.81286795;9.14184224;2023-02-18T03:36:04;4.37;;;2.97;;
215;SDS011;64590;48.81286795;9.14184224;2023-02-18T03:38:34;4.67;;;2.90;;
215;SDS011;64590;48.81286795;9.14184224;2023-02-18T03:41:04;4.53;;;3.03;;
215;SDS011;64590;48.81286795;9.14184224;2023-02-18T03:43:31;4.70;;;3.20;;
215;SDS011;64590;48.81286795;9.14184224;2023-02-18T03:45:58;4.90;;;3.10;;
215;SDS011;64590;48.81286795;9.14184224;2023-02-18T03:48:26;4.03;;;2.83;;
215;SDS011;64590;48.81286795;9.14184224;2023-02-18T03:50:52;3.90;;;2.67;;
215;SDS011;64590;48.81286795;9.14184224;2023-02-18T03:53:19;4.17;;;2.80;;
215;SDS011;64590;48.81286795;9.14184224;2023-02-18T03:55:47;4.63;;;3.03;;
215;SDS011;64590;48.81286795;9.14184224;2023-02-18T03:58:14;4.07;;;2.90;;
215;SDS011;64590;48.81286795;9.14184224;2023-02-18T04:00:40;5.17;;;3.03;;
215;SDS011;64590;48.81286795;9.14184224;2023-02-18T04:03:07;5.50;;;3.20;;
215;SDS011;64590;48.81286795;9.14184224;2023-02-18T04:05:34;5.23;;;3.10;;
215;SDS011;64590;48.81286795;9.14184224;2023-02-18T04:08:00;5.60;;;3.03;;
215;SDS011;64590;48.81286795;9.14184224;2023-02-18T04:10:27;5.57;;;3.00;;
215;SDS011;64590;48.81286795;9.14184224;2023-02-18T04:12:55;5.57;;;3.20;;
215;SDS011;64590;48.81286795;9.14184224;2023-02-18T04:15:22;4.33;;;2.83;;
215;SDS011;64590;48.81286795;9.14184224;2023-02-18T04:17:48;4.53;;;2.67;;
215;SDS011;64590;48.81286795;9.14184224;2023-02-18T04:20:15;5.80;;;2.90;;
215;SDS011;64590;48.81286795;9.14184224;2023-02-18T04:22:41;4.27;;;2.60;;
215;SDS011;64590;48.81286795;9.14184224;2023-02-18T04:25:08;4.60;;;2.80;;
215;SDS011;64590;48.81286795;9.14184224;2023-02-18T04:27:35;4.73;;;3.00;;
215;SDS011;64590;48.81286795;9.14184224;2023-02-18T04:30:03;4.10;;;2.60;;
215;SDS011;64590;48.81286795;9.14184224;2023-02-18T04:32:30;4.77;;;2.90;;
215;SDS011;64590;48.81286795;9.14184224;2023-02-18T04:34:57;3.83;;;2.63;;
215;SDS011;64590;48.81286795;9.14184224;2023-02-18T04:37:24;4.50;;;2.70;;
215;SDS011;64590;48.81286795;9.14184224;2023-02-18T04:39:50;3.97;;;2.80;;
215;SDS011;64590;48.81286795;9.14184224;2023-02-18T04:42:17;4.83;;;2.70;;
215;SDS011;64590;48.81286795;9.14184224;2023-02-18T04:44:43;5.50;;;2.80;;
215;SDS011;64590;48.81286795;9.14184224;2023-02-18T04:47:11;9.17;;;4.43;;
215;SDS011;64590;48.81286795;9.14184224;2023-02-18T04:49:38;5.27;;;2.90;;
215;SDS011;64590;48.81286795;9.14184224;2023-02-18T04:52:04;4.20;;;2.70;;
215;SDS011;64590;48.81286795;9.14184224;2023-02-18T04:54:31;4.00;;;2.70;;
215;SDS011;64590;48.81286795;9.14184224;2023-02-18T04:56:58;5.10;;;2.80;;
215;SDS011;64590;48.81286795;9.14184224;2023-02-18T04:59:24;4.53;;;3.03;;
215;SDS011;64590;48.81286795;9.14184224;2023-02-18T05:01:51;3.93;;;2.63;;
215;SDS011;64590;48.81286795;9.14184224;2023-02-18T05:04:19;4.87;;;3.20;;
215;SDS011;64590;48.81286795;9.14184224;2023-02-18T05:06:46;5.33;;;2.70;;
215;SDS011;64590;48.81286795;9.14184224;2023-02-18T05:09:12;4.73;;;2.70;;
215;SDS011;64590;48.81286795;9.14184224;2023-02-18T05:11:39;4.03;;;2.77;;
215;SDS011;64590;48.81286795;9.14184224;2023-02-18T05:14:06;4.43;;;2.90;;
215;SDS011;64590;48.81286795;9.14184224;2023-02-18T05:16:32;4.13;;;2.60;;
215;SDS011;64590;48.81286795;9.14184224;2023-02-18T05:18:59;4.53;;;2.97;;
215;SDS011;64590;48.81286795;9.14184224;2023-02-18T05:21:27;5.30;;;2.80;;
215;SDS011;64590;48.81286795;9.14184224;2023-02-18T05:23:53;3.97;;;2.57;;
215;SDS011;64590;48.81286795;9.14184224;2023-02-18T05:26:20;4.07;;;2.67;;
215;SDS011;64590;48.81286795;9.14184224;2023-02-18T05:28:47;4.67;;;2.73;;
215;SDS011;64590;48.81286795;9.14184224;2023-02-18T05:31:13;4.60;;;2.60;;
215;SDS011;64590;48.81286795;9.14184224;2023-02-18T05:33:40;3.93;;;2.63;;
215;SDS011;64590;48.81286795;9.14184224;2023-02-18T05:36:07;3.70;;;2.50;;
215;SDS011;64590;48.81286795;9.14184224;2023-02-18T05:38:35;3.83;;;2.60;;
215;SDS011;64590;48.81286795;9.14184224;2023-02-18T05:41:01;3.63;;;2.30;;
215;SDS011;64590;48.81286795;9.14184224;2023-02-18T05:43:28;3.23;;;2.20;;
215;SDS011;64590;48.81286795;9.14184224;2023-02-18T05:45:55;5.00;;;2.90;;
215;SDS011;64590;48.81286795;9.14184224;2023-02-18T05:48:21;6.10;;;3.83;;
215;SDS011;64590;48.81286795;9.14184224;2023-02-18T05:50:48;4.33;;;2.80;;
215;SDS011;64590;48.81286795;9.14184224;2023-02-18T05:53:18;4.60;;;2.80;;
215;SDS011;64590;48.81286795;9.14184224;2023-02-18T05:55:45;4.83;;;2.70;;
215;SDS011;64590;48.81286795;9.14184224;2023-02-18T05:58:12;4.37;;;2.47;;
215;SDS011;64590;48.81286795;9.14184224;2023-02-18T06:00:41;4.30;;;2.20;;
215;SDS011;64590;48.81286795;9.14184224;2023-02-18T06:03:07;3.70;;;2.50;;
215;SDS011;64590;48.81286795;9.14184224;2023-02-18T06:05:34;3.97;;;2.67;;
215;SDS011;64590;48.81286795;9.14184224;2023-02-18T06:08:00;6.40;;;2.47;;
215;SDS011;64590;48.81286795;9.14184224;2023-02-18T06:10:27;4.67;;;2.80;;
215;SDS011;64590;48.81286795;9.14184224;2023-02-18T06:12:55;5.23;;;2.80;;
215;SDS011;64590;48.81286795;9.14184224;2023-02-18T06:15:21;5.23;;;3.10;;
215;SDS011;64590;48.81286795;9.14184224;2023-02-18T06:17:48;4.73;;;2.87;;
215;SDS011;64590;48.81286795;9.14184224;2023-02-18T06:20:14;3.90;;;2.67;;
215;SDS011;64590;48.81286795;9.14184224;2023-02-18T06:22:41;6.10;;;2.90;;
215;SDS011;64590;48.81286795;9.14184224;2023-02-18T06:25:08;7.37;;;3.50;;
215;SDS011;64590;48.81286795;9.14184224;2023-02-18T06:27:34;7.20;;;4.07;;
215;SDS011;64590;48.81286795;9.14184224;2023-02-18T06:30:02;11.03;;;2.90;;
215;SDS011;64590;48.81286795;9.14184224;2023-02-18T06:32:29;6.17;;;4.00;;
215;SDS011;64590;48.81286795;9.14184224;2023-02-18T06:34:56;5.33;;;3.67;;
215;SDS011;64590;48.81286795;9.14184224;2023-02-18T06:37:22;4.57;;;3.10;;
215;SDS011;64590;48.81286795;9.14184224;2023-02-18T06:39:49;5.13;;;2.50;;
215;SDS011;64590;48.81286795;9.14184224;2023-02-18T06:42:15;4.37;;;3.00;;
215;SDS011;64590;48.81286795;9.14184224;2023-02-18T06:44:42;4.93;;;3.17;;
215;SDS011;64590;48.81286795;9.14184224;2023-02-18T06:47:10;5.87;;;3.00;;
215;SDS011;64590;48.81286795;9.14184224;2023-02-18T06:49:37;5.90;;;3.00;;
215;SDS011;64590;48.81286795;9.14184224;2023-02-18T06:52:04;4.57;;;2.70;;
215;SDS011;64590;48.81286795;9.14184224;2023-02-18T06:54:31;4.57;;;2.70;;
215;SDS011;64590;48.81286795;9.14184224;2023-02-18T06:56:58;4.00;;;2.70;;
215;SDS011;64590;48.81286795;9.14184224;2023-02-18T06:59:25;3.90;;;2.50;;
215;SDS011;64590;48.81286795;9.14184224;2023-02-18T07:01:52;5.30;;;2.90;;
215;SDS011;64590;48.81286795;9.14184224;2023-02-18T07:04:20;4.43;;;2.80;;
215;SDS011;64590;48.81286795;9.14184224;2023-02-18T07:06:46;4.37;;;2.87;;
215;SDS011;64590;48.81286795;9.14184224;2023-02-18T07:09:13;4.67;;;2.60;;
215;SDS011;64590;48.81286795;9.14184224;2023-02-18T07:11:39;4.70;;;2.80;;
215;SDS011;64590;48.81286795;9.14184224;2023-02-18T07:14:06;4.67;;;2.70;;
215;SDS011;64590;48.81286795;9.14184224;2023-02-18T07:16:32;4.77;;;2.97;;
215;SDS011;64590;48.81286795;9.14184224;2023-02-18T07:18:59;4.63;;;3.03;;
215;SDS011;64590;48.81286795;9.14184224;2023-02-18T07:21:27;4.37;;;3.00;;
215;SDS011;64590;48.81286795;9.14184224;2023-02-18T07:23:53;4.10;;;2.50;;
215;SDS011;64590;48.81286795;9.14184224;2023-02-18T07:26:20;4.00;;;2.67;;
215;SDS011;64590;48.81286795;9.14184224;2023-02-18T07:28:46;4.77;;;3.07;;
215;SDS011;64590;48.81286795;9.14184224;2023-02-18T07:31:13;3.90;;;2.60;;
215;SDS011;64590;48.81286795;9.14184224;2023-02-18T07:33:40;4.70;;;3.03;;
215;SDS011;64590;48.81286795;9.14184224;2023-02-18T07:36:06;4.33;;;3.00;;
215;SDS011;64590;48.81286795;9.14184224;2023-02-18T07:38:35;4.87;;;3.37;;
215;SDS011;64590;48.81286795;9.14184224;2023-02-18T07:41:02;5.60;;;3.50;;
215;SDS011;64590;48.81286795;9.14184224;2023-02-18T07:43:28;4.60;;;3.10;;
215;SDS011;64590;48.81286795;9.14184224;2023-02-18T07:45:55;4.20;;;2.90;;
215;SDS011;64590;48.81286795;9.14184224;2023-02-18T07:48:21;4.80;;;3.07;;
215;SDS011;64590;48.81286795;9.14184224;2023-02-18T07:50:48;4.10;;;2.80;;
215;SDS011;64590;48.81286795;9.14184224;2023-02-18T07:53:15;5.67;;;2.93;;
215;SDS011;64590;48.81286795;9.14184224;2023-02-18T07:55:43;4.37;;;3.00;;
215;SDS011;64590;48.81286795;9.14184224;2023-02-18T07:58:16;4.57;;;3.00;;
215;SDS011;64590;48.81286795;9.14184224;2023-02-18T08:00:44;6.83;;;2.93;;
215;SDS011;64590;48.81286795;9.14184224;2023-02-18T08:03:12;6.93;;;3.97;;
215;SDS011;64590;48.81286795;9.14184224;2023-02-18T08:05:38;5.53;;;3.57;;
215;SDS011;64590;48.81286795;9.14184224;2023-02-18T08:08:05;5.53;;;3.10;;
215;SDS011;64590;48.81286795;9.14184224;2023-02-18T08:10:32;5.07;;;3.37;;
215;SDS011;64590;48.81286795;9.14184224;2023-02-18T08:12:59;5.37;;;3.17;;
215;SDS011;64590;48.81286795;9.14184224;2023-02-18T08:15:26;4.60;;;3.00;;
215;SDS011;64590;48.81286795;9.14184224;2023-02-18T08:17:52;5.23;;;2.87;;
215;SDS011;64590;48.81286795;9.14184224;2023-02-18T08:20:19;4.80;;;3.00;;
215;SDS011;64590;48.81286795;9.14184224;2023-02-18T08:22:46;4.77;;;2.60;;
215;SDS011;64590;48.81286795;9.14184224;2023-02-18T08:25:12;6.07;;;3.00;;
215;SDS011;64590;48.81286795;9.14184224;2023-02-18T08:27:39;5.13;;;2.90;;
215;SDS011;64590;48.81286795;9.14184224;2023-02-18T08:30:07;4.70;;;2.90;;
215;SDS011;64590;48.81286795;9.14184224;2023-02-18T08:32:35;4.40;;;2.90;;
215;SDS011;64590;48.81286795;9.14184224;2023-02-18T08:35:01;6.03;;;3.63;;
215;SDS011;64590;48.81286795;9.14184224;2023-02-18T08:37:28;4.23;;;2.83;;
215;SDS011;64590;48.81286795;9.14184224;2023-02-18T08:39:55;4.53;;;2.80;;
215;SDS011;64590;48.81286795;9.14184224;2023-02-18T08:42:21;3.93;;;2.70;;
215;SDS011;64590;48.81286795;9.14184224;2023-02-18T08:44:48;6.33;;;2.77;;
215;SDS011;64590;48.81286795;9.14184224;2023-02-18T08:47:16;5.60;;;2.73;;
215;SDS011;64590;48.81286795;9.14184224;2023-02-18T08:49:42;6.07;;;2.50;;
215;SDS011;64590;48.81286795;9.14184224;2023-02-18T08:52:09;6.03;;;2.80;;
215;SDS011;64590;48.81286795;9.14184224;2023-02-18T08:54:36;4.43;;;2.97;;
215;SDS011;64590;48.81286795;9.14184224;2023-02-18T08:57:02;4.60;;;2.70;;
215;SDS011;64590;48.81286795;9.14184224;2023-02-18T08:59:29;4.03;;;2.60;;
215;SDS011;64590;48.81286795;9.14184224;2023-02-18T09:01:55;4.00;;;2.60;;
215;SDS011;64590;48.81286795;9.14184224;2023-02-18T09:04:23;3.70;;;2.37;;
215;SDS011;64590;48.81286795;9.14184224;2023-02-18T09:06:50;3.93;;;2.37;;
215;SDS011;64590;48.81286795;9.14184224;2023-02-18T09:09:16;3.80;;;2.50;;
215;SDS011;64590;48.81286795;9.14184224;2023-02-18T09:11:43;4.53;;;2.47;;
215;SDS011;64590;48.81286795;9.14184224;2023-02-18T09:14:10;4.33;;;2.60;;
215;SDS011;64590;48.81286795;9.14184224;2023-02-18T09:16:38;3.40;;;2.20;;
215;SDS011;64590;48.81286795;9.14184224;2023-02-18T09:19:04;5.03;;;2.50;;
215;SDS011;64590;48.81286795;9.14184224;2023-02-18T09:21:33;4.77;;;2.50;;
215;SDS011;64590;48.81286795;9.14184224;2023-02-18T09:23:59;4.00;;;2.50;;
215;SDS011;64590;48.81286795;9.14184224;2023-02-18T09:26:26;3.73;;;2.40;;
215;SDS011;64590;48.81286795;9.14184224;2023-02-18T09:28:53;3.80;;;2.40;;
215;SDS011;64590;48.81286795;9.14184224;2023-02-18T09:31:23;4.73;;;2.60;;
215;SDS011;64590;48.81286795;9.14184224;2023-02-18T09:33:51;3.87;;;2.60;;
215;SDS011;64590;48.81286795;9.14184224;2023-02-18T09:36:20;4.10;;;2.60;;
215;SDS011;64590;48.81286795;9.14184224;2023-02-18T09:38:48;5.07;;;2.50;;
215;SDS011;64590;48.81286795;9.14184224;2023-02-18T09:41:17;5.67;;;2.80;;
215;SDS011;64590;48.81286795;9.14184224;2023-02-18T09:43:53;5.33;;;2.70;;
215;SDS011;64590;48.81286795;9.14184224;2023-02-18T09:46:23;4.17;;;2.60;;
215;SDS011;64590;48.81286795;9.14184224;2023-02-18T09:48:53;4.70;;;3.00;;
215;SDS011;64590;48.81286795;9.14184224;2023-02-18T09:51:20;3.87;;;2.50;;
215;SDS011;64590;48.81286795;9.14184224;2023-02-18T09:53:48;4.37;;;2.60;;
215;SDS011;64590;48.81286795;9.14184224;2023-02-18T09:56:16;3.40;;;2.30;;
215;SDS011;64590;48.81286795;9.14184224;2023-02-18T09:58:46;3.60;;;2.40;;
215;SDS011;64590;48.81286795;9.14184224;2023-02-18T10:01:15;3.70;;;2.40;;
215;SDS011;64590;48.81286795;9.14184224;2023-02-18T10:03:47;3.80;;;2.60;;
215;SDS011;64590;48.81286795;9.14184224;2023-02-18T10:06:15;4.40;;;2.50;;
215;SDS011;64590;48.81286795;9.14184224;2023-02-18T10:08:44;5.33;;;2.40;;
215;SDS011;64590;48.81286795;9.14184224;2023-02-18T10:11:14;6.23;;;2.67;;
215;SDS011;64590;48.81286795;9.14184224;2023-02-18T10:13:43;8.43;;;2.60;;
215;SDS011;64590;48.81286795;9.14184224;2023-02-18T10:16:13;8.20;;;2.40;;
215;SDS011;64590;48.81286795;9.14184224;2023-02-18T10:18:43;4.07;;;2.17;;
215;SDS011;64590;48.81286795;9.14184224;2023-02-18T10:21:14;4.47;;;2.40;;
215;SDS011;64590;48.81286795;9.14184224;2023-02-18T10:23:46;5.30;;;2.60;;
215;SDS011;64590;48.81286795;9.14184224;2023-02-18T10:26:19;4.60;;;2.43;;
215;SDS011;64590;48.81286795;9.14184224;2023-02-18T10:28:46;4.93;;;2.53;;
215;SDS011;64590;48.81286795;9.14184224;2023-02-18T10:31:14;5.33;;;2.50;;
215;SDS011;64590;48.81286795;9.14184224;2023-02-18T10:33:45;4.93;;;2.73;;
215;SDS011;64590;48.81286795;9.14184224;2023-02-18T10:36:20;5.00;;;2.50;;
215;SDS011;64590;48.81286795;9.14184224;2023-02-18T10:39:00;3.83;;;2.50;;
215;SDS011;64590;48.81286795;9.14184224;2023-02-18T10:41:37;4.23;;;2.60;;
215;SDS011;64590;48.81286795;9.14184224;2023-02-18T10:44:14;5.50;;;2.20;;
215;SDS011;64590;48.81286795;9.14184224;2023-02-18T10:46:49;7.90;;;2.60;;
215;SDS011;64590;48.81286795;9.14184224;2023-02-18T10:49:29;4.07;;;2.20;;
215;SDS011;64590;48.81286795;9.14184224;2023-02-18T10:52:08;3.27;;;2.10;;
215;SDS011;64590;48.81286795;9.14184224;2023-02-18T10:54:48;4.97;;;2.20;;
215;SDS011;64590;48.81286795;9.14184224;2023-02-18T10:57:19;3.97;;;2.40;;
215;SDS011;64590;48.81286795;9.14184224;2023-02-18T10:59:53;4.17;;;2.20;;
215;SDS011;64590;48.81286795;9.14184224;2023-02-18T11:02:23;6.10;;;2.00;;
215;SDS011;64590;48.81286795;9.14184224;2023-02-18T11:04:54;3.83;;;2.50;;
215;SDS011;64590;48.81286795;9.14184224;2023-02-18T11:07:22;7.23;;;2.30;;
215;SDS011;64590;48.81286795;9.14184224;2023-02-18T11:09:52;3.97;;;2.10;;
215;SDS011;64590;48.81286795;9.14184224;2023-02-18T11:12:22;5.70;;;2.20;;
215;SDS011;64590;48.81286795;9.14184224;2023-02-18T11:15:03;3.80;;;2.13;;
215;SDS011;64590;48.81286795;9.14184224;2023-02-18T11:17:32;3.23;;;2.10;;
215;SDS011;64590;48.81286795;9.14184224;2023-02-18T11:20:03;4.80;;;2.20;;
215;SDS011;64590;48.81286795;9.14184224;2023-02-18T11:22:47;9.63;;;2.00;;
215;SDS011;64590;48.81286795;9.14184224;2023-02-18T11:25:17;5.53;;;2.40;;
215;SDS011;64590;48.81286795;9.14184224;2023-02-18T11:27:48;4.77;;;2.20;;
215;SDS011;64590;48.81286795;9.14184224;2023-02-18T11:30:18;5.67;;;2.60;;
215;SDS011;64590;48.81286795;9.14184224;2023-02-18T11:32:49;7.83;;;2.50;;
215;SDS011;64590;48.81286795;9.14184224;2023-02-18T11:35:18;12.93;;;2.40;;
215;SDS011;64590;48.81286795;9.14184224;2023-02-18T11:37:46;3.60;;;2.30;;
215;SDS011;64590;48.81286795;9.14184224;2023-02-18T11:40:18;4.57;;;2.53;;
215;SDS011;64590;48.81286795;9.14184224;2023-02-18T11:42:48;4.90;;;2.43;;
215;SDS011;64590;48.81286795;9.14184224;2023-02-18T11:45:25;3.57;;;2.50;;
215;SDS011;64590;48.81286795;9.14184224;2023-02-18T11:47:57;8.37;;;2.40;;
215;SDS011;64590;48.81286795;9.14184224;2023-02-18T11:50:25;5.40;;;2.30;;
215;SDS011;64590;48.81286795;9.14184224;2023-02-18T11:52:56;4.63;;;2.40;;
215;SDS011;64590;48.81286795;9.14184224;2023-02-18T11:55:24;4.70;;;2.90;;
215;SDS011;64590;48.81286795;9.14184224;2023-02-18T11:57:55;6.00;;;2.73;;
215;SDS011;64590;48.81286795;9.14184224;2023-02-18T12:00:24;4.17;;;2.67;;
215;SDS011;64590;48.81286795;9.14184224;2023-02-18T12:03:03;5.40;;;2.87;;
215;SDS011;64590;48.81286795;9.14184224;2023-02-18T12:05:42;4.70;;;2.80;;
215;SDS011;64590;48.81286795;9.14184224;2023-02-18T12:08:12;7.10;;;2.50;;
215;SDS011;64590;48.81286795;9.14184224;2023-02-18T12:10:45;3.87;;;2.53;;
215;SDS011;64590;48.81286795;9.14184224;2023-02-18T12:13:19;3.90;;;2.60;;
215;SDS011;64590;48.81286795;9.14184224;2023-02-18T12:15:52;5.80;;;2.70;;
215;SDS011;64590;48.81286795;9.14184224;2023-02-18T12:24:19;4.23;;;2.67;;
215;SDS011;64590;48.81286795;9.14184224;2023-02-18T12:27:01;5.00;;;2.53;;
215;SDS011;64590;48.81286795;9.14184224;2023-02-18T12:29:41;4.00;;;2.60;;
215;SDS011;64590;48.81286795;9.14184224;2023-02-18T12:32:31;6.60;;;2.80;;
215;SDS011;64590;48.81286795;9.14184224;2023-02-18T12:35:12;6.57;;;3.40;;
215;SDS011;64590;48.81286795;9.14184224;2023-02-18T12:37:57;4.30;;;2.80;;
215;SDS011;64590;48.81286795;9.14184224;2023-02-18T12:40:38;4.97;;;2.90;;
215;SDS011;64590;48.81286795;9.14184224;2023-02-18T12:43:11;8.40;;;3.03;;
215;SDS011;64590;48.81286795;9.14184224;2023-02-18T12:45:55;4.53;;;3.00;;
215;SDS011;64590;48.81286795;9.14184224;2023-02-18T12:48:37;6.80;;;3.10;;
215;SDS011;64590;48.81286795;9.14184224;2023-02-18T12:51:20;4.90;;;3.00;;
215;SDS011;64590;48.81286795;9.14184224;2023-02-18T12:54:01;8.33;;;3.10;;
215;SDS011;64590;48.81286795;9.14184224;2023-02-18T12:56:39;5.37;;;3.10;;
215;SDS011;64590;48.81286795;9.14184224;2023-02-18T12:59:20;5.10;;;3.20;;
215;SDS011;64590;48.81286795;9.14184224;2023-02-18T13:02:05;5.00;;;3.00;;
215;SDS011;64590;48.81286795;9.14184224;2023-02-18T13:04:46;5.03;;;3.20;;
215;SDS011;64590;48.81286795;9.14184224;2023-02-18T13:07:27;7.70;;;3.20;;
215;SDS011;64590;48.81286795;9.14184224;2023-02-18T13:10:29;4.90;;;3.17;;
215;SDS011;64590;48.81286795;9.14184224;2023-02-18T13:13:10;5.00;;;3.10;;
215;SDS011;64590;48.81286795;9.14184224;2023-02-18T13:15:38;5.80;;;3.20;;
215;SDS011;64590;48.81286795;9.14184224;2023-02-18T13:18:11;6.53;;;3.30;;
215;SDS011;64590;48.81286795;9.14184224;2023-02-18T13:20:42;4.77;;;3.00;;
215;SDS011;64590;48.81286795;9.14184224;2023-02-18T13:23:16;5.93;;;2.90;;
215;SDS011;64590;48.81286795;9.14184224;2023-02-18T13:25:44;5.97;;;3.43;;
215;SDS011;64590;48.81286795;9.14184224;2023-02-18T13:28:16;4.97;;;3.30;;
215;SDS011;64590;48.81286795;9.14184224;2023-02-18T13:30:49;5.70;;;3.60;;
215;SDS011;64590;48.81286795;9.14184224;2023-02-18T13:33:26;6.47;;;3.30;;
215;SDS011;64590;48.81286795;9.14184224;2023-02-18T13:36:06;5.53;;;3.40;;
215;SDS011;64590;48.81286795;9.14184224;2023-02-18T13:38:52;8.60;;;3.10;;
215;SDS011;64590;48.81286795;9.14184224;2023-02-18T13:41:24;5.20;;;3.17;;
215;SDS011;64590;48.81286795;9.14184224;2023-02-18T13:43:52;5.33;;;3.60;;
215;SDS011;64590;48.81286795;9.14184224;2023-02-18T13:46:19;6.17;;;4.00;;
215;SDS011;64590;48.81286795;9.14184224;2023-02-18T13:48:48;6.83;;;3.70;;
215;SDS011;64590;48.81286795;9.14184224;2023-02-18T13:51:17;6.50;;;3.67;;
215;SDS011;64590;48.81286795;9.14184224;2023-02-18T13:53:56;4.97;;;3.30;;